createdAt,value
2023-02-11T00:02:39.562Z,42.55
2023-02-11T00:05:41.651Z,42.56
2023-02-11T00:08:43.798Z,42.54
2023-02-11T00:11:45.831Z,42.53
2023-02-11T00:14:48.518Z,42.52
2023-02-11T00:17:50.627Z,42.50
2023-02-11T00:20:52.724Z,42.50
2023-02-11T00:23:57.092Z,42.52
2023-02-11T00:26:59.344Z,42.52
2023-02-11T00:30:02.543Z,42.55
2023-02-11T00:33:04.721Z,42.53
2023-02-11T00:36:13.736Z,42.57
2023-02-11T00:39:16.033Z,42.55
2023-02-11T00:42:18.162Z,42.54
2023-02-11T00:45:21.296Z,42.56
2023-02-11T00:48:23.418Z,42.60
2023-02-11T00:51:27.487Z,42.58
2023-02-11T00:54:30.081Z,42.57
2023-02-11T00:57:32.296Z,42.59
2023-02-11T01:00:34.365Z,42.60
2023-02-11T01:03:36.557Z,42.60
2023-02-11T01:06:38.750Z,42.65
2023-02-11T01:09:40.963Z,42.63
2023-02-11T01:12:43.575Z,42.61
2023-02-11T01:15:45.827Z,42.65
2023-02-11T01:18:48.088Z,42.64
2023-02-11T01:21:50.318Z,42.65
2023-02-11T01:24:52.617Z,42.67
2023-02-11T01:27:54.732Z,42.67
2023-02-11T01:30:57.346Z,42.71
2023-02-11T01:33:59.444Z,42.69
2023-02-11T01:37:01.552Z,42.73
2023-02-11T01:40:07.062Z,42.72
2023-02-11T01:43:11.075Z,42.69
2023-02-11T01:46:33.807Z,42.71
2023-02-11T01:49:48.259Z,42.72
2023-02-11T01:52:50.435Z,42.70
2023-02-11T01:56:11.960Z,42.76
2023-02-11T01:59:21.181Z,42.72
2023-02-11T02:02:50.420Z,42.71
2023-02-11T02:06:22.703Z,42.73
2023-02-11T02:09:29.061Z,42.74
2023-02-11T02:12:31.168Z,42.76
2023-02-11T02:15:38.999Z,42.78
2023-02-11T02:19:17.134Z,42.80
2023-02-11T02:22:49.123Z,42.82
2023-02-11T02:26:19.752Z,42.84
2023-02-11T02:29:33.932Z,42.83
2023-02-11T02:33:22.502Z,42.77
2023-02-11T02:36:41.849Z,42.78
2023-02-11T02:39:48.145Z,42.81
2023-02-11T02:42:50.872Z,42.82
2023-02-11T02:45:53.360Z,42.81
2023-02-11T02:48:56.807Z,42.87
2023-02-11T02:52:17.658Z,42.90
2023-02-11T02:55:48.730Z,42.90
2023-02-11T02:59:10.769Z,42.91
2023-02-11T03:02:18.465Z,42.89
2023-02-11T03:05:50.982Z,42.95
2023-02-11T03:09:14.313Z,42.95
2023-02-11T03:12:17.540Z,42.93
2023-02-11T03:15:21.364Z,42.96
2023-02-11T03:18:27.262Z,42.96
2023-02-11T03:21:32.453Z,42.98
2023-02-11T03:24:37.645Z,42.99
2023-02-11T03:27:42.264Z,43.01
2023-02-11T03:30:55.845Z,43.01
2023-02-11T03:34:12.564Z,43.03
2023-02-11T03:37:23.572Z,43.00
2023-02-11T03:40:28.912Z,42.99
2023-02-11T03:43:42.124Z,43.03
2023-02-11T03:46:52.038Z,43.03
2023-02-11T03:49:57.124Z,43.03
2023-02-11T03:53:01.867Z,43.06
2023-02-11T03:56:08.081Z,43.05
2023-02-11T03:59:10.156Z,43.06
2023-02-11T04:02:12.217Z,43.06
2023-02-11T04:05:16.209Z,43.07
2023-02-11T04:08:18.254Z,43.08
2023-02-11T04:11:20.312Z,43.07
2023-02-11T04:14:22.368Z,43.08
2023-02-11T04:17:24.507Z,43.12
2023-02-11T04:20:26.610Z,43.09
2023-02-11T04:23:29.154Z,43.11
2023-02-11T04:26:31.237Z,43.09
2023-02-11T04:29:33.407Z,43.11
2023-02-11T04:32:35.468Z,43.09
2023-02-11T04:35:37.551Z,43.13
2023-02-11T04:38:39.605Z,43.16
2023-02-11T04:41:41.915Z,43.16
2023-02-11T04:44:44.088Z,43.16
2023-02-11T04:47:46.140Z,43.16
2023-02-11T04:50:48.180Z,43.16
2023-02-11T04:53:50.250Z,43.22
2023-02-11T04:56:52.315Z,43.19
2023-02-11T04:59:54.387Z,43.21
2023-02-11T05:02:56.508Z,43.21
2023-02-11T05:05:58.533Z,43.20
2023-02-11T05:09:00.579Z,43.22
2023-02-11T05:12:02.657Z,43.21
2023-02-11T05:15:05.197Z,43.20
2023-02-11T05:18:07.237Z,43.22
2023-02-11T05:21:11.284Z,43.23
2023-02-11T05:24:13.304Z,43.18
2023-02-11T05:27:15.407Z,43.24
2023-02-11T05:30:17.539Z,43.23
2023-02-11T05:33:19.609Z,43.26
2023-02-11T05:36:21.733Z,43.28
2023-02-11T05:39:23.819Z,43.23
2023-02-11T05:42:25.929Z,43.29
2023-02-11T05:45:28.332Z,43.26
2023-02-11T05:48:31.114Z,43.28
2023-02-11T05:51:33.156Z,43.24
2023-02-11T05:54:35.227Z,43.24
2023-02-11T05:57:37.323Z,43.14
2023-02-11T06:00:42.696Z,42.98
2023-02-11T06:03:44.917Z,42.90
2023-02-11T06:06:47.008Z,42.85
2023-02-11T06:09:49.091Z,42.81
2023-02-11T06:12:51.225Z,42.75
2023-02-11T06:16:00.613Z,42.68
2023-02-11T06:19:03.080Z,42.57
2023-02-11T06:22:05.228Z,42.49
2023-02-11T06:25:07.563Z,42.41
2023-02-11T06:28:10.657Z,42.27
2023-02-11T06:31:13.473Z,42.16
2023-02-11T06:34:15.649Z,42.07
2023-02-11T06:37:17.740Z,41.91
2023-02-11T06:40:20.262Z,41.87
2023-02-11T06:43:22.356Z,41.83
2023-02-11T06:46:24.470Z,41.73
2023-02-11T06:49:26.586Z,41.69
2023-02-11T06:52:28.686Z,41.78
2023-02-11T06:55:30.818Z,41.70
2023-02-11T06:58:33.703Z,41.55
2023-02-11T07:01:35.848Z,41.55
2023-02-11T07:04:38.216Z,41.58
2023-02-11T07:07:40.326Z,41.66
2023-02-11T07:10:42.800Z,41.73
2023-02-11T07:13:44.935Z,41.82
2023-02-11T07:16:47.064Z,41.98
2023-02-11T07:19:49.408Z,41.78
2023-02-11T07:22:51.489Z,41.58
2023-02-11T07:25:53.564Z,41.44
2023-02-11T07:28:55.752Z,41.42
2023-02-11T07:31:57.784Z,41.46
2023-02-11T07:34:59.927Z,41.46
2023-02-11T07:38:02.072Z,41.36
2023-02-11T07:41:06.980Z,41.41
2023-02-11T07:44:09.212Z,41.52
2023-02-11T07:47:11.282Z,41.28
2023-02-11T07:50:13.404Z,40.83
2023-02-11T07:53:15.677Z,40.67
2023-02-11T07:56:19.248Z,40.73
2023-02-11T07:59:21.301Z,40.77
2023-02-11T08:02:23.446Z,40.73
2023-02-11T08:05:25.653Z,40.62
2023-02-11T08:08:28.081Z,40.81
2023-02-11T08:11:30.256Z,40.88
2023-02-11T08:14:32.856Z,40.83
2023-02-11T08:17:36.290Z,40.64
2023-02-11T08:20:38.555Z,40.79
2023-02-11T08:23:42.021Z,40.65
2023-02-11T08:26:44.259Z,40.71
2023-02-11T08:29:46.309Z,40.88
2023-02-11T08:32:48.450Z,40.77
2023-02-11T08:35:50.701Z,41.00
2023-02-11T08:39:05.670Z,41.24
2023-02-11T08:42:17.808Z,41.35
2023-02-11T08:45:20.295Z,41.31
2023-02-11T08:48:22.380Z,41.25
2023-02-11T08:51:31.638Z,41.33
2023-02-11T08:54:33.737Z,41.33
2023-02-11T08:57:35.931Z,41.75
2023-02-11T09:00:38.047Z,41.26
2023-02-11T09:03:40.366Z,41.60
2023-02-11T09:06:42.590Z,42.05
2023-02-11T09:09:44.677Z,42.29
2023-02-11T09:12:46.752Z,41.91
2023-02-11T09:15:48.807Z,41.37
2023-02-11T09:18:51.335Z,41.51
2023-02-11T09:21:53.439Z,41.25
2023-02-11T09:24:55.621Z,40.96
2023-02-11T09:27:57.671Z,40.51
2023-02-11T09:30:59.930Z,40.04
2023-02-11T09:34:06.681Z,39.68
2023-02-11T09:37:09.091Z,39.50
2023-02-11T09:40:11.867Z,39.24
2023-02-11T09:43:21.726Z,38.89
2023-02-11T09:46:25.878Z,38.63
2023-02-11T09:49:39.823Z,38.50
2023-02-11T09:52:41.968Z,38.12
2023-02-11T09:55:47.683Z,38.01
2023-02-11T09:58:49.778Z,38.13
2023-02-11T10:02:04.100Z,38.30
2023-02-11T10:05:25.609Z,38.54
2023-02-11T10:08:37.008Z,38.73
2023-02-11T10:12:00.982Z,38.54
2023-02-11T10:15:15.241Z,38.45
2023-02-11T10:18:17.235Z,38.55
2023-02-11T10:21:43.761Z,38.44
2023-02-11T10:25:27.146Z,38.59
2023-02-11T10:28:33.667Z,38.94
2023-02-11T10:31:43.055Z,39.00
2023-02-11T10:34:45.186Z,39.14
2023-02-11T10:37:48.173Z,39.26
2023-02-11T10:40:50.637Z,39.36
2023-02-11T10:43:53.557Z,39.19
2023-02-11T10:46:57.702Z,39.27
2023-02-11T10:50:03.633Z,37.75
2023-02-11T10:53:21.639Z,37.85
2023-02-11T10:56:27.666Z,38.19
2023-02-11T10:59:40.463Z,38.28
2023-02-11T11:02:44.597Z,38.41
2023-02-11T11:05:59.762Z,38.62
2023-02-11T11:09:02.099Z,38.75
2023-02-11T11:12:04.227Z,38.82
2023-02-11T11:15:11.998Z,38.78
2023-02-11T11:18:22.865Z,38.63
2023-02-11T11:21:47.714Z,38.72
2023-02-11T11:24:54.353Z,38.75
2023-02-11T11:28:00.297Z,38.62
2023-02-11T11:31:03.304Z,38.43
2023-02-11T11:34:28.823Z,38.17
2023-02-11T11:37:33.936Z,38.20
2023-02-11T11:40:36.466Z,38.23
2023-02-11T11:43:38.809Z,38.06
2023-02-11T11:46:43.693Z,37.95
2023-02-11T11:50:05.089Z,37.81
2023-02-11T11:53:31.121Z,37.85
2023-02-11T11:56:37.858Z,37.91
2023-02-11T11:59:40.098Z,38.07
2023-02-11T12:03:10.614Z,38.02
2023-02-11T12:06:30.008Z,38.03
2023-02-11T12:09:43.802Z,38.09
2023-02-11T12:12:56.785Z,38.19
2023-02-11T12:16:20.174Z,38.21
2023-02-11T12:19:42.272Z,38.11
2023-02-11T12:23:02.651Z,38.00
2023-02-11T12:26:19.011Z,37.92
2023-02-11T12:29:45.858Z,37.86
2023-02-11T12:32:57.621Z,37.87
2023-02-11T12:36:05.329Z,37.76
2023-02-11T12:39:34.143Z,37.75
2023-02-11T12:43:17.507Z,37.55
2023-02-11T12:46:40.199Z,36.85
2023-02-11T12:49:59.165Z,36.90
2023-02-11T12:53:38.751Z,36.70
2023-02-11T12:56:49.299Z,36.48
2023-02-11T12:59:59.002Z,36.80
2023-02-11T13:03:16.891Z,37.11
2023-02-11T13:06:24.742Z,37.26
2023-02-11T13:09:35.745Z,37.28
2023-02-11T13:12:57.184Z,37.27
2023-02-11T13:16:33.752Z,37.30
2023-02-11T13:19:43.995Z,37.48
2023-02-11T13:22:59.241Z,37.47
2023-02-11T13:26:28.385Z,37.52
2023-02-11T13:29:40.674Z,37.70
2023-02-11T13:32:57.790Z,37.78
2023-02-11T13:36:00.351Z,37.95
2023-02-11T13:39:06.405Z,38.07
2023-02-11T13:42:16.401Z,38.32
2023-02-11T13:45:41.063Z,38.53
2023-02-11T13:48:49.632Z,38.72
2023-02-11T13:51:52.840Z,38.73
2023-02-11T13:54:58.045Z,38.88
2023-02-11T13:58:06.247Z,39.01
2023-02-11T14:01:08.483Z,39.01
2023-02-11T14:04:44.917Z,39.16
2023-02-11T14:08:29.310Z,39.25
2023-02-11T14:11:40.638Z,39.49
2023-02-11T14:15:10.605Z,39.49
2023-02-11T14:18:39.020Z,39.49
2023-02-11T14:21:44.018Z,39.54
2023-02-11T14:24:51.088Z,39.59
2023-02-11T14:28:02.108Z,39.62
2023-02-11T14:31:10.650Z,39.68
2023-02-11T14:34:50.047Z,39.66
2023-02-11T14:38:11.281Z,39.72
2023-02-11T14:41:32.036Z,39.95
2023-02-11T14:44:34.960Z,40.08
2023-02-11T14:47:56.853Z,40.07
2023-02-11T14:51:23.739Z,40.24
2023-02-11T14:54:28.124Z,40.39
2023-02-11T14:57:30.695Z,40.48
2023-02-11T15:00:32.869Z,40.67
2023-02-11T15:03:47.686Z,40.82
2023-02-11T15:06:49.884Z,41.08
2023-02-11T15:09:53.925Z,41.26
2023-02-11T15:12:56.288Z,41.19
2023-02-11T15:16:06.738Z,41.11
2023-02-11T15:19:21.613Z,41.16
2023-02-11T15:22:33.184Z,41.30
2023-02-11T15:25:44.268Z,41.49
2023-02-11T15:28:52.078Z,41.62
2023-02-11T15:32:15.174Z,41.74
2023-02-11T15:35:18.186Z,41.81
2023-02-11T15:38:20.228Z,41.90
2023-02-11T15:41:37.848Z,41.97
2023-02-11T15:44:40.060Z,42.14
2023-02-11T15:47:54.536Z,42.13
2023-02-11T15:50:59.871Z,42.15
2023-02-11T15:54:16.775Z,42.10
2023-02-11T15:57:19.996Z,42.18
2023-02-11T16:00:25.130Z,42.29
2023-02-11T16:03:32.560Z,42.26
2023-02-11T16:06:40.291Z,42.37
2023-02-11T16:09:43.465Z,42.23
2023-02-11T16:13:07.578Z,42.07
2023-02-11T16:16:21.851Z,41.94
2023-02-11T16:19:26.032Z,41.65
2023-02-11T16:22:35.252Z,41.57
2023-02-11T16:25:41.730Z,41.78
2023-02-11T16:28:43.835Z,41.73
2023-02-11T16:31:47.788Z,41.74
2023-02-11T16:34:50.863Z,41.81
2023-02-11T16:37:53.019Z,41.50
2023-02-11T16:40:55.291Z,41.87
2023-02-11T16:43:58.842Z,41.74
2023-02-11T16:47:03.280Z,41.81
2023-02-11T16:50:10.400Z,41.80
2023-02-11T16:53:13.482Z,41.73
2023-02-11T16:56:17.721Z,41.75
2023-02-11T16:59:21.497Z,41.77
2023-02-11T17:02:30.349Z,41.65
2023-02-11T17:05:42.709Z,41.91
2023-02-11T17:08:51.713Z,41.86
2023-02-11T17:11:54.102Z,41.81
2023-02-11T17:14:56.433Z,41.91
2023-02-11T17:17:59.096Z,41.93
2023-02-11T17:21:01.831Z,41.90
2023-02-11T17:24:04.134Z,41.91
2023-02-11T17:27:09.271Z,41.90
2023-02-11T17:30:13.220Z,41.87
2023-02-11T17:33:16.191Z,41.97
2023-02-11T17:36:20.936Z,41.98
2023-02-11T17:39:24.014Z,42.02
2023-02-11T17:42:26.915Z,41.99
2023-02-11T17:45:29.078Z,41.98
2023-02-11T17:48:31.173Z,42.01
2023-02-11T17:51:37.702Z,42.04
2023-02-11T17:54:40.021Z,42.04
2023-02-11T17:57:42.160Z,42.09
2023-02-11T18:00:44.331Z,42.05
2023-02-11T18:03:46.668Z,42.08
2023-02-11T18:06:53.664Z,42.03
2023-02-11T18:09:55.787Z,42.10
2023-02-11T18:12:57.997Z,42.10
2023-02-11T18:16:04.824Z,42.13
2023-02-11T18:19:08.702Z,42.16
2023-02-11T18:22:11.303Z,42.18
2023-02-11T18:25:18.690Z,42.15
2023-02-11T18:28:21.290Z,42.16
2023-02-11T18:31:24.799Z,42.18
2023-02-11T18:34:27.279Z,42.17
2023-02-11T18:37:29.391Z,42.25
2023-02-11T18:40:31.521Z,42.26
2023-02-11T18:43:34.461Z,42.23
2023-02-11T18:46:36.766Z,42.26
2023-02-11T18:49:38.884Z,42.26
2023-02-11T18:52:41.056Z,42.29
2023-02-11T18:55:44.678Z,42.28
2023-02-11T18:58:47.558Z,42.30
2023-02-11T19:01:51.081Z,42.33
2023-02-11T19:04:53.223Z,42.29
2023-02-11T19:07:58.931Z,42.34
2023-02-11T19:11:04.412Z,42.32
2023-02-11T19:14:10.187Z,42.35
2023-02-11T19:17:13.380Z,42.36
2023-02-11T19:20:15.727Z,42.41
2023-02-11T19:23:17.849Z,42.46
2023-02-11T19:26:24.578Z,42.45
2023-02-11T19:29:26.867Z,42.50
2023-02-11T19:32:29.263Z,42.53
2023-02-11T19:35:37.643Z,42.58
2023-02-11T19:38:39.780Z,42.50
2023-02-11T19:41:41.919Z,42.56
2023-02-11T19:44:44.078Z,42.61
2023-02-11T19:47:46.217Z,42.66
2023-02-11T19:50:48.613Z,42.61
2023-02-11T19:53:51.295Z,42.60
2023-02-11T19:56:53.709Z,42.65
2023-02-11T19:59:56.955Z,42.58
2023-02-11T20:02:59.092Z,42.68
2023-02-11T20:06:05.342Z,42.66
2023-02-11T20:09:11.861Z,42.65
2023-02-11T20:12:13.997Z,42.74
2023-02-11T20:15:16.112Z,42.69
2023-02-11T20:18:18.202Z,42.73
2023-02-11T20:21:22.860Z,42.65
2023-02-11T20:24:25.676Z,42.69
2023-02-11T20:27:32.160Z,42.61
2023-02-11T20:30:34.513Z,42.66
2023-02-11T20:33:36.684Z,42.64
2023-02-11T20:36:40.323Z,42.67
2023-02-11T20:39:45.023Z,42.59
2023-02-11T20:42:47.247Z,42.67
2023-02-11T20:45:50.076Z,42.61
2023-02-11T20:48:54.476Z,42.65
2023-02-11T20:51:58.418Z,42.63
2023-02-11T20:55:01.646Z,42.65
2023-02-11T20:58:04.592Z,42.64
2023-02-11T21:01:11.045Z,42.62
2023-02-11T21:04:27.597Z,42.65
2023-02-11T21:07:29.895Z,42.65
2023-02-11T21:10:32.225Z,42.69
2023-02-11T21:13:35.376Z,42.74
2023-02-11T21:16:37.843Z,42.74
2023-02-11T21:19:41.445Z,42.77
2023-02-11T21:22:43.722Z,42.80
2023-02-11T21:25:45.855Z,42.84
2023-02-11T21:28:48.775Z,42.87
2023-02-11T21:31:51.449Z,42.91
2023-02-11T21:34:54.135Z,42.94
2023-02-11T21:37:56.274Z,42.95
2023-02-11T21:41:04.017Z,42.98
2023-02-11T21:44:06.195Z,43.02
2023-02-11T21:47:08.290Z,43.00
2023-02-11T21:50:10.785Z,43.08
2023-02-11T21:53:13.919Z,43.08
2023-02-11T21:56:18.289Z,43.10
2023-02-11T21:59:20.409Z,43.18
2023-02-11T22:02:22.674Z,43.23
2023-02-11T22:05:25.029Z,43.22
2023-02-11T22:08:27.139Z,43.28
2023-02-11T22:11:29.326Z,43.31
2023-02-11T22:14:32.504Z,43.35
2023-02-11T22:17:34.797Z,43.39
2023-02-11T22:20:36.964Z,43.44
2023-02-11T22:23:39.585Z,43.47
2023-02-11T22:26:41.774Z,43.52
2023-02-11T22:29:44.382Z,43.51
2023-02-11T22:32:47.394Z,43.58
2023-02-11T22:35:49.994Z,43.51
2023-02-11T22:38:52.762Z,43.52
2023-02-11T22:41:56.556Z,43.58
2023-02-11T22:44:58.666Z,43.61
2023-02-11T22:48:00.785Z,43.64
2023-02-11T22:51:11.219Z,43.71
2023-02-11T22:54:16.235Z,43.74
2023-02-11T22:57:18.498Z,43.77
2023-02-11T23:00:21.544Z,43.76
2023-02-11T23:03:23.693Z,43.82
2023-02-11T23:06:25.823Z,43.85
2023-02-11T23:09:27.988Z,43.90
2023-02-11T23:12:30.233Z,43.89
2023-02-11T23:15:32.700Z,43.93
2023-02-11T23:18:36.008Z,43.95
2023-02-11T23:21:39.512Z,43.96
2023-02-11T23:24:41.633Z,43.98
2023-02-11T23:27:43.706Z,44.01
2023-02-11T23:30:45.852Z,44.03
2023-02-11T23:33:49.028Z,44.06
2023-02-11T23:36:54.874Z,44.06
2023-02-11T23:39:57.059Z,44.06
2023-02-11T23:42:59.316Z,44.08
2023-02-11T23:46:01.627Z,44.12
2023-02-11T23:49:04.069Z,44.14
2023-02-11T23:52:06.286Z,44.16
2023-02-11T23:55:09.059Z,44.19
2023-02-11T23:58:12.312Z,44.19
